sensor_id;sensor_type;location;lat;lon;timestamp;P1;durP1;ratioP1;P2;durP2;ratioP2
18505;SDS011;9382;53.242;10.438;2023-10-08T00:12:16;6.67;;;2.93;;
18505;SDS011;9382;53.242;10.438;2023-10-08T00:22:24;5.23;;;2.53;;
18505;SDS011;9382;53.242;10.438;2023-10-08T00:25:08;5.27;;;2.50;;
18505;SDS011;9382;53.242;10.438;2023-10-08T00:31:50;3.97;;;2.40;;
18505;SDS011;9382;53.242;10.438;2023-10-08T00:34:37;2.53;;;2.20;;
18505;SDS011;9382;53.242;10.438;2023-10-08T00:37:21;3.20;;;1.73;;
18505;SDS011;9382;53.242;10.438;2023-10-08T00:39:52;5.53;;;2.27;;
18505;SDS011;9382;53.242;10.438;2023-10-08T00:42:30;4.30;;;2.27;;
18505;SDS011;9382;53.242;10.438;2023-10-08T00:45:12;4.03;;;1.90;;
18505;SDS011;9382;53.242;10.438;2023-10-08T00:47:44;3.87;;;2.10;;
18505;SDS011;9382;53.242;10.438;2023-10-08T00:50:12;2.60;;;1.80;;
18505;SDS011;9382;53.242;10.438;2023-10-08T00:52:46;4.07;;;2.00;;
18505;SDS011;9382;53.242;10.438;2023-10-08T00:55:24;3.30;;;2.30;;
18505;SDS011;9382;53.242;10.438;2023-10-08T00:58:00;4.90;;;2.20;;
18505;SDS011;9382;53.242;10.438;2023-10-08T01:00:43;4.23;;;1.97;;
18505;SDS011;9382;53.242;10.438;2023-10-08T01:03:19;6.30;;;2.47;;
18505;SDS011;9382;53.242;10.438;2023-10-08T01:05:53;6.90;;;2.30;;
18505;SDS011;9382;53.242;10.438;2023-10-08T01:09:00;6.87;;;2.33;;
18505;SDS011;9382;53.242;10.438;2023-10-08T01:14:40;4.80;;;2.30;;
18505;SDS011;9382;53.242;10.438;2023-10-08T01:17:13;2.57;;;2.20;;
18505;SDS011;9382;53.242;10.438;2023-10-08T01:19:51;6.43;;;2.63;;
18505;SDS011;9382;53.242;10.438;2023-10-08T01:22:38;5.23;;;2.40;;
18505;SDS011;9382;53.242;10.438;2023-10-08T01:25:23;5.63;;;2.30;;
18505;SDS011;9382;53.242;10.438;2023-10-08T01:27:55;5.10;;;2.33;;
18505;SDS011;9382;53.242;10.438;2023-10-08T01:30:40;7.23;;;2.53;;
18505;SDS011;9382;53.242;10.438;2023-10-08T01:33:09;5.13;;;2.20;;
18505;SDS011;9382;53.242;10.438;2023-10-08T01:35:41;3.77;;;2.40;;
18505;SDS011;9382;53.242;10.438;2023-10-08T01:38:28;3.87;;;2.30;;
18505;SDS011;9382;53.242;10.438;2023-10-08T01:41:00;4.03;;;2.27;;
18505;SDS011;9382;53.242;10.438;2023-10-08T01:43:30;4.37;;;2.30;;
18505;SDS011;9382;53.242;10.438;2023-10-08T01:45:58;3.67;;;2.10;;
18505;SDS011;9382;53.242;10.438;2023-10-08T01:48:36;5.77;;;2.33;;
18505;SDS011;9382;53.242;10.438;2023-10-08T01:51:07;5.43;;;2.50;;
18505;SDS011;9382;53.242;10.438;2023-10-08T01:53:51;4.00;;;2.23;;
18505;SDS011;9382;53.242;10.438;2023-10-08T01:56:29;6.57;;;2.57;;
18505;SDS011;9382;53.242;10.438;2023-10-08T01:59:11;5.10;;;2.57;;
18505;SDS011;9382;53.242;10.438;2023-10-08T02:01:47;5.60;;;2.37;;
18505;SDS011;9382;53.242;10.438;2023-10-08T02:04:17;5.77;;;2.33;;
18505;SDS011;9382;53.242;10.438;2023-10-08T02:07:14;5.47;;;2.80;;
18505;SDS011;9382;53.242;10.438;2023-10-08T02:09:47;5.67;;;2.40;;
18505;SDS011;9382;53.242;10.438;2023-10-08T02:12:22;5.10;;;2.40;;
18505;SDS011;9382;53.242;10.438;2023-10-08T02:14:54;3.10;;;2.20;;
18505;SDS011;9382;53.242;10.438;2023-10-08T02:17:21;3.00;;;2.23;;
18505;SDS011;9382;53.242;10.438;2023-10-08T02:19:51;3.13;;;2.27;;
18505;SDS011;9382;53.242;10.438;2023-10-08T02:22:18;5.53;;;2.07;;
18505;SDS011;9382;53.242;10.438;2023-10-08T02:24:47;3.57;;;2.00;;
18505;SDS011;9382;53.242;10.438;2023-10-08T02:27:15;7.13;;;2.67;;
18505;SDS011;9382;53.242;10.438;2023-10-08T02:29:43;6.90;;;2.60;;
18505;SDS011;9382;53.242;10.438;2023-10-08T02:32:17;5.67;;;2.30;;
18505;SDS011;9382;53.242;10.438;2023-10-08T02:34:47;5.73;;;2.63;;
18505;SDS011;9382;53.242;10.438;2023-10-08T02:37:18;3.77;;;2.40;;
18505;SDS011;9382;53.242;10.438;2023-10-08T02:39:47;5.07;;;2.87;;
18505;SDS011;9382;53.242;10.438;2023-10-08T02:42:15;7.37;;;2.73;;
18505;SDS011;9382;53.242;10.438;2023-10-08T02:44:44;3.47;;;2.30;;
18505;SDS011;9382;53.242;10.438;2023-10-08T02:47:16;5.10;;;2.13;;
18505;SDS011;9382;53.242;10.438;2023-10-08T02:49:48;4.27;;;2.40;;
18505;SDS011;9382;53.242;10.438;2023-10-08T02:52:18;4.33;;;2.30;;
18505;SDS011;9382;53.242;10.438;2023-10-08T02:54:50;5.07;;;2.37;;
18505;SDS011;9382;53.242;10.438;2023-10-08T02:57:18;2.50;;;1.93;;
18505;SDS011;9382;53.242;10.438;2023-10-08T02:59:46;2.33;;;2.13;;
18505;SDS011;9382;53.242;10.438;2023-10-08T03:02:15;3.37;;;2.07;;
18505;SDS011;9382;53.242;10.438;2023-10-08T03:04:46;3.93;;;2.60;;
18505;SDS011;9382;53.242;10.438;2023-10-08T03:07:23;5.60;;;2.27;;
18505;SDS011;9382;53.242;10.438;2023-10-08T03:10:05;3.17;;;2.20;;
18505;SDS011;9382;53.242;10.438;2023-10-08T03:12:43;4.90;;;2.40;;
18505;SDS011;9382;53.242;10.438;2023-10-08T03:15:14;4.43;;;2.30;;
18505;SDS011;9382;53.242;10.438;2023-10-08T03:17:54;5.13;;;2.50;;
18505;SDS011;9382;53.242;10.438;2023-10-08T03:20:25;4.33;;;2.40;;
18505;SDS011;9382;53.242;10.438;2023-10-08T03:23:03;5.60;;;2.27;;
18505;SDS011;9382;53.242;10.438;2023-10-08T03:25:40;3.50;;;2.00;;
18505;SDS011;9382;53.242;10.438;2023-10-08T03:28:11;2.93;;;2.27;;
18505;SDS011;9382;53.242;10.438;2023-10-08T03:30:47;6.00;;;2.40;;
18505;SDS011;9382;53.242;10.438;2023-10-08T03:33:23;5.07;;;2.20;;
18505;SDS011;9382;53.242;10.438;2023-10-08T03:35:52;4.33;;;2.00;;
18505;SDS011;9382;53.242;10.438;2023-10-08T03:38:23;5.77;;;2.03;;
18505;SDS011;9382;53.242;10.438;2023-10-08T03:41:11;5.40;;;2.47;;
18505;SDS011;9382;53.242;10.438;2023-10-08T03:43:43;2.57;;;2.03;;
18505;SDS011;9382;53.242;10.438;2023-10-08T03:46:18;4.63;;;2.00;;
18505;SDS011;9382;53.242;10.438;2023-10-08T03:48:49;3.37;;;2.23;;
18505;SDS011;9382;53.242;10.438;2023-10-08T03:51:22;3.27;;;1.70;;
18505;SDS011;9382;53.242;10.438;2023-10-08T03:53:52;2.60;;;2.00;;
18505;SDS011;9382;53.242;10.438;2023-10-08T03:56:42;5.83;;;2.23;;
18505;SDS011;9382;53.242;10.438;2023-10-08T03:59:17;4.63;;;1.83;;
18505;SDS011;9382;53.242;10.438;2023-10-08T04:02:03;5.03;;;2.20;;
18505;SDS011;9382;53.242;10.438;2023-10-08T04:04:41;3.00;;;1.80;;
18505;SDS011;9382;53.242;10.438;2023-10-08T04:07:22;2.27;;;1.93;;
18505;SDS011;9382;53.242;10.438;2023-10-08T04:10:06;2.60;;;2.10;;
18505;SDS011;9382;53.242;10.438;2023-10-08T04:13:19;5.40;;;2.30;;
18505;SDS011;9382;53.242;10.438;2023-10-08T04:15:50;3.60;;;2.00;;
18505;SDS011;9382;53.242;10.438;2023-10-08T04:18:31;4.13;;;2.27;;
18505;SDS011;9382;53.242;10.438;2023-10-08T04:21:05;3.13;;;2.00;;
18505;SDS011;9382;53.242;10.438;2023-10-08T04:23:40;3.97;;;2.07;;
18505;SDS011;9382;53.242;10.438;2023-10-08T04:26:16;2.30;;;1.90;;
18505;SDS011;9382;53.242;10.438;2023-10-08T04:28:50;6.87;;;2.10;;
18505;SDS011;9382;53.242;10.438;2023-10-08T04:31:22;2.80;;;2.03;;
18505;SDS011;9382;53.242;10.438;2023-10-08T04:33:53;2.40;;;2.07;;
18505;SDS011;9382;53.242;10.438;2023-10-08T04:36:26;2.50;;;2.00;;
18505;SDS011;9382;53.242;10.438;2023-10-08T04:38:59;3.43;;;1.80;;
18505;SDS011;9382;53.242;10.438;2023-10-08T04:41:38;3.23;;;1.80;;
18505;SDS011;9382;53.242;10.438;2023-10-08T04:44:10;4.70;;;1.87;;
18505;SDS011;9382;53.242;10.438;2023-10-08T04:46:40;4.23;;;2.10;;
18505;SDS011;9382;53.242;10.438;2023-10-08T04:49:22;3.93;;;2.13;;
18505;SDS011;9382;53.242;10.438;2023-10-08T04:51:59;6.53;;;2.20;;
18505;SDS011;9382;53.242;10.438;2023-10-08T04:54:30;8.47;;;2.10;;
18505;SDS011;9382;53.242;10.438;2023-10-08T04:57:11;3.93;;;2.00;;
18505;SDS011;9382;53.242;10.438;2023-10-08T05:00:03;4.83;;;2.20;;
18505;SDS011;9382;53.242;10.438;2023-10-08T05:02:37;4.17;;;2.60;;
18505;SDS011;9382;53.242;10.438;2023-10-08T05:05:16;2.53;;;2.20;;
18505;SDS011;9382;53.242;10.438;2023-10-08T05:07:49;2.30;;;1.93;;
18505;SDS011;9382;53.242;10.438;2023-10-08T05:10:34;6.57;;;2.43;;
18505;SDS011;9382;53.242;10.438;2023-10-08T05:13:23;3.30;;;2.07;;
18505;SDS011;9382;53.242;10.438;2023-10-08T05:16:01;3.67;;;2.20;;
18505;SDS011;9382;53.242;10.438;2023-10-08T05:18:51;6.33;;;2.30;;
18505;SDS011;9382;53.242;10.438;2023-10-08T05:21:37;5.47;;;2.13;;
18505;SDS011;9382;53.242;10.438;2023-10-08T05:24:27;2.73;;;1.70;;
18505;SDS011;9382;53.242;10.438;2023-10-08T05:27:04;5.87;;;1.90;;
18505;SDS011;9382;53.242;10.438;2023-10-08T05:30:01;4.07;;;2.07;;
18505;SDS011;9382;53.242;10.438;2023-10-08T05:32:56;2.80;;;2.00;;
18505;SDS011;9382;53.242;10.438;2023-10-08T05:35:52;3.53;;;2.00;;
18505;SDS011;9382;53.242;10.438;2023-10-08T05:38:33;4.57;;;1.90;;
18505;SDS011;9382;53.242;10.438;2023-10-08T05:41:25;2.73;;;1.90;;
18505;SDS011;9382;53.242;10.438;2023-10-08T05:44:08;2.53;;;1.70;;
18505;SDS011;9382;53.242;10.438;2023-10-08T05:46:48;2.93;;;2.00;;
18505;SDS011;9382;53.242;10.438;2023-10-08T06:03:36;2.07;;;1.87;;
18505;SDS011;9382;53.242;10.438;2023-10-08T06:06:12;3.33;;;2.00;;
18505;SDS011;9382;53.242;10.438;2023-10-08T06:09:19;3.67;;;2.07;;
18505;SDS011;9382;53.242;10.438;2023-10-08T06:12:00;2.37;;;1.80;;
18505;SDS011;9382;53.242;10.438;2023-10-08T06:15:01;3.37;;;2.03;;
18505;SDS011;9382;53.242;10.438;2023-10-08T06:17:34;4.07;;;2.03;;
18505;SDS011;9382;53.242;10.438;2023-10-08T06:20:34;2.33;;;1.90;;
18505;SDS011;9382;53.242;10.438;2023-10-08T06:23:25;6.00;;;2.10;;
18505;SDS011;9382;53.242;10.438;2023-10-08T06:26:24;2.60;;;2.27;;
18505;SDS011;9382;53.242;10.438;2023-10-08T06:29:02;3.60;;;2.13;;
18505;SDS011;9382;53.242;10.438;2023-10-08T06:31:58;2.27;;;1.93;;
18505;SDS011;9382;53.242;10.438;2023-10-08T06:34:37;2.20;;;2.00;;
18505;SDS011;9382;53.242;10.438;2023-10-08T06:40:30;3.97;;;2.10;;
18505;SDS011;9382;53.242;10.438;2023-10-08T06:43:31;3.20;;;2.10;;
18505;SDS011;9382;53.242;10.438;2023-10-08T06:46:10;4.23;;;2.13;;
18505;SDS011;9382;53.242;10.438;2023-10-08T06:49:24;4.90;;;1.97;;
18505;SDS011;9382;53.242;10.438;2023-10-08T06:52:21;2.33;;;1.93;;
18505;SDS011;9382;53.242;10.438;2023-10-08T06:55:34;3.73;;;2.20;;
18505;SDS011;9382;53.242;10.438;2023-10-08T06:58:22;5.53;;;2.20;;
18505;SDS011;9382;53.242;10.438;2023-10-08T07:01:18;2.90;;;1.90;;
18505;SDS011;9382;53.242;10.438;2023-10-08T07:04:28;4.33;;;1.90;;
18505;SDS011;9382;53.242;10.438;2023-10-08T07:07:39;2.73;;;1.70;;
18505;SDS011;9382;53.242;10.438;2023-10-08T10:01:23;2.10;;;1.00;;
18505;SDS011;9382;53.242;10.438;2023-10-08T10:03:53;1.57;;;1.07;;
18505;SDS011;9382;53.242;10.438;2023-10-08T10:06:30;1.00;;;1.00;;
18505;SDS011;9382;53.242;10.438;2023-10-08T10:09:14;1.57;;;1.10;;
18505;SDS011;9382;53.242;10.438;2023-10-08T10:11:56;1.13;;;1.03;;
18505;SDS011;9382;53.242;10.438;2023-10-08T10:14:40;2.07;;;1.20;;
18505;SDS011;9382;53.242;10.438;2023-10-08T10:17:11;1.20;;;0.87;;
18505;SDS011;9382;53.242;10.438;2023-10-08T10:19:43;1.40;;;0.90;;
18505;SDS011;9382;53.242;10.438;2023-10-08T10:22:26;4.23;;;1.20;;
18505;SDS011;9382;53.242;10.438;2023-10-08T10:25:18;2.03;;;1.00;;
18505;SDS011;9382;53.242;10.438;2023-10-08T10:28:21;3.73;;;1.23;;
18505;SDS011;9382;53.242;10.438;2023-10-08T10:30:52;2.57;;;1.13;;
18505;SDS011;9382;53.242;10.438;2023-10-08T10:33:20;1.97;;;1.00;;
18505;SDS011;9382;53.242;10.438;2023-10-08T10:35:56;0.90;;;0.90;;
18505;SDS011;9382;53.242;10.438;2023-10-08T10:38:26;1.20;;;0.90;;
18505;SDS011;9382;53.242;10.438;2023-10-08T10:40:55;1.43;;;1.00;;
18505;SDS011;9382;53.242;10.438;2023-10-08T10:43:34;1.30;;;0.93;;
18505;SDS011;9382;53.242;10.438;2023-10-08T10:46:08;1.37;;;0.87;;
18505;SDS011;9382;53.242;10.438;2023-10-08T10:48:50;1.43;;;0.80;;
18505;SDS011;9382;53.242;10.438;2023-10-08T10:51:43;1.00;;;1.00;;
18505;SDS011;9382;53.242;10.438;2023-10-08T10:54:17;1.63;;;1.00;;
18505;SDS011;9382;53.242;10.438;2023-10-08T10:56:48;0.97;;;0.97;;
18505;SDS011;9382;53.242;10.438;2023-10-08T10:59:31;0.93;;;0.93;;
18505;SDS011;9382;53.242;10.438;2023-10-08T11:02:04;0.90;;;0.90;;
18505;SDS011;9382;53.242;10.438;2023-10-08T11:04:35;1.03;;;0.97;;
18505;SDS011;9382;53.242;10.438;2023-10-08T11:07:13;0.90;;;0.90;;
18505;SDS011;9382;53.242;10.438;2023-10-08T11:09:46;1.00;;;1.00;;
18505;SDS011;9382;53.242;10.438;2023-10-08T11:12:28;1.20;;;0.90;;
18505;SDS011;9382;53.242;10.438;2023-10-08T11:15:12;1.97;;;0.90;;
18505;SDS011;9382;53.242;10.438;2023-10-08T11:17:43;1.27;;;1.00;;
18505;SDS011;9382;53.242;10.438;2023-10-08T11:23:31;0.80;;;0.80;;
18505;SDS011;9382;53.242;10.438;2023-10-08T11:26:06;2.17;;;1.10;;
18505;SDS011;9382;53.242;10.438;2023-10-08T11:29:05;2.00;;;1.10;;
18505;SDS011;9382;53.242;10.438;2023-10-08T11:31:51;3.43;;;1.10;;
18505;SDS011;9382;53.242;10.438;2023-10-08T11:34:30;0.80;;;0.80;;
18505;SDS011;9382;53.242;10.438;2023-10-08T11:37:08;2.87;;;0.83;;
18505;SDS011;9382;53.242;10.438;2023-10-08T11:39:46;1.47;;;1.10;;
18505;SDS011;9382;53.242;10.438;2023-10-08T11:42:17;1.33;;;1.00;;
18505;SDS011;9382;53.242;10.438;2023-10-08T11:45:06;1.67;;;1.00;;
18505;SDS011;9382;53.242;10.438;2023-10-08T11:47:49;1.43;;;1.07;;
18505;SDS011;9382;53.242;10.438;2023-10-08T11:50:30;1.73;;;1.20;;
18505;SDS011;9382;53.242;10.438;2023-10-08T11:53:06;1.97;;;1.07;;
18505;SDS011;9382;53.242;10.438;2023-10-08T11:55:34;1.70;;;1.10;;
18505;SDS011;9382;53.242;10.438;2023-10-08T11:58:06;2.57;;;1.33;;
18505;SDS011;9382;53.242;10.438;2023-10-08T12:00:43;2.30;;;0.80;;
18505;SDS011;9382;53.242;10.438;2023-10-08T12:03:17;1.83;;;0.90;;
18505;SDS011;9382;53.242;10.438;2023-10-08T12:05:47;1.53;;;1.00;;
18505;SDS011;9382;53.242;10.438;2023-10-08T12:08:28;3.40;;;1.20;;
18505;SDS011;9382;53.242;10.438;2023-10-08T12:10:57;1.70;;;0.93;;
18505;SDS011;9382;53.242;10.438;2023-10-08T12:13:28;1.30;;;1.20;;
18505;SDS011;9382;53.242;10.438;2023-10-08T12:15:57;2.17;;;1.20;;
18505;SDS011;9382;53.242;10.438;2023-10-08T12:18:37;2.97;;;1.00;;
18505;SDS011;9382;53.242;10.438;2023-10-08T12:21:10;1.37;;;1.00;;
18505;SDS011;9382;53.242;10.438;2023-10-08T12:23:47;0.93;;;0.90;;
18505;SDS011;9382;53.242;10.438;2023-10-08T12:26:20;2.97;;;1.00;;
18505;SDS011;9382;53.242;10.438;2023-10-08T12:28:50;1.40;;;0.85;;
18505;SDS011;9382;53.242;10.438;2023-10-08T12:31:21;1.30;;;0.90;;
18505;SDS011;9382;53.242;10.438;2023-10-08T12:33:52;1.98;;;1.17;;
18505;SDS011;9382;53.242;10.438;2023-10-08T12:36:25;1.83;;;1.00;;
18505;SDS011;9382;53.242;10.438;2023-10-08T12:41:53;2.47;;;1.10;;
18505;SDS011;9382;53.242;10.438;2023-10-08T12:44:31;1.80;;;0.88;;
18505;SDS011;9382;53.242;10.438;2023-10-08T12:47:01;2.13;;;1.15;;
18505;SDS011;9382;53.242;10.438;2023-10-08T12:49:34;1.40;;;0.98;;
18505;SDS011;9382;53.242;10.438;2023-10-08T12:52:01;0.80;;;0.80;;
18505;SDS011;9382;53.242;10.438;2023-10-08T12:54:40;1.20;;;1.10;;
18505;SDS011;9382;53.242;10.438;2023-10-08T12:57:12;1.40;;;1.00;;
18505;SDS011;9382;53.242;10.438;2023-10-08T12:59:44;2.27;;;1.20;;
18505;SDS011;9382;53.242;10.438;2023-10-08T13:02:16;1.17;;;0.90;;
18505;SDS011;9382;53.242;10.438;2023-10-08T13:04:45;1.90;;;1.30;;
18505;SDS011;9382;53.242;10.438;2023-10-08T13:07:12;2.47;;;1.10;;
18505;SDS011;9382;53.242;10.438;2023-10-08T13:09:48;1.20;;;1.10;;
18505;SDS011;9382;53.242;10.438;2023-10-08T13:12:16;3.00;;;1.27;;
18505;SDS011;9382;53.242;10.438;2023-10-08T13:14:43;1.77;;;1.10;;
18505;SDS011;9382;53.242;10.438;2023-10-08T13:17:10;1.90;;;1.20;;
18505;SDS011;9382;53.242;10.438;2023-10-08T13:19:37;1.60;;;1.03;;
18505;SDS011;9382;53.242;10.438;2023-10-08T13:22:04;1.30;;;1.10;;
18505;SDS011;9382;53.242;10.438;2023-10-08T13:24:44;1.63;;;0.97;;
18505;SDS011;9382;53.242;10.438;2023-10-08T13:27:16;1.40;;;0.90;;
18505;SDS011;9382;53.242;10.438;2023-10-08T13:29:45;2.83;;;1.20;;
18505;SDS011;9382;53.242;10.438;2023-10-08T13:32:12;1.40;;;0.90;;
18505;SDS011;9382;53.242;10.438;2023-10-08T13:34:43;0.90;;;0.90;;
18505;SDS011;9382;53.242;10.438;2023-10-08T13:37:11;1.53;;;1.20;;
18505;SDS011;9382;53.242;10.438;2023-10-08T13:39:39;1.40;;;1.20;;
18505;SDS011;9382;53.242;10.438;2023-10-08T13:42:06;3.50;;;1.37;;
18505;SDS011;9382;53.242;10.438;2023-10-08T13:44:42;2.07;;;1.10;;
18505;SDS011;9382;53.242;10.438;2023-10-08T13:47:13;2.50;;;1.20;;
18505;SDS011;9382;53.242;10.438;2023-10-08T13:49:41;1.37;;;1.10;;
18505;SDS011;9382;53.242;10.438;2023-10-08T13:52:09;2.00;;;1.10;;
18505;SDS011;9382;53.242;10.438;2023-10-08T13:54:37;1.67;;;1.20;;
18505;SDS011;9382;53.242;10.438;2023-10-08T13:57:12;1.30;;;1.13;;
18505;SDS011;9382;53.242;10.438;2023-10-08T13:59:40;1.20;;;1.10;;
18505;SDS011;9382;53.242;10.438;2023-10-08T14:02:09;5.20;;;1.57;;
18505;SDS011;9382;53.242;10.438;2023-10-08T14:04:40;1.57;;;1.07;;
18505;SDS011;9382;53.242;10.438;2023-10-08T14:07:08;1.30;;;1.20;;
18505;SDS011;9382;53.242;10.438;2023-10-08T14:09:37;5.03;;;1.40;;
18505;SDS011;9382;53.242;10.438;2023-10-08T14:12:07;1.90;;;1.20;;
18505;SDS011;9382;53.242;10.438;2023-10-08T14:14:35;1.40;;;1.30;;
18505;SDS011;9382;53.242;10.438;2023-10-08T14:17:10;1.67;;;1.40;;
18505;SDS011;9382;53.242;10.438;2023-10-08T14:19:40;2.37;;;1.37;;
18505;SDS011;9382;53.242;10.438;2023-10-08T14:22:11;1.10;;;1.10;;
18505;SDS011;9382;53.242;10.438;2023-10-08T14:24:40;1.43;;;1.10;;
18505;SDS011;9382;53.242;10.438;2023-10-08T14:27:12;1.83;;;1.30;;
18505;SDS011;9382;53.242;10.438;2023-10-08T14:29:41;1.63;;;1.40;;
18505;SDS011;9382;53.242;10.438;2023-10-08T14:32:13;2.37;;;1.30;;
18505;SDS011;9382;53.242;10.438;2023-10-08T14:34:40;1.00;;;1.00;;
18505;SDS011;9382;53.242;10.438;2023-10-08T14:37:23;1.20;;;1.10;;
18505;SDS011;9382;53.242;10.438;2023-10-08T14:40:07;1.23;;;1.13;;
18505;SDS011;9382;53.242;10.438;2023-10-08T14:42:52;1.13;;;1.07;;
18505;SDS011;9382;53.242;10.438;2023-10-08T14:45:24;1.30;;;1.20;;
18505;SDS011;9382;53.242;10.438;2023-10-08T14:47:57;1.30;;;1.20;;
18505;SDS011;9382;53.242;10.438;2023-10-08T14:50:25;1.93;;;1.30;;
18505;SDS011;9382;53.242;10.438;2023-10-08T14:52:56;1.57;;;1.47;;
18505;SDS011;9382;53.242;10.438;2023-10-08T14:55:27;1.50;;;1.40;;
18505;SDS011;9382;53.242;10.438;2023-10-08T14:57:56;3.57;;;1.43;;
18505;SDS011;9382;53.242;10.438;2023-10-08T15:00:31;1.67;;;1.30;;
18505;SDS011;9382;53.242;10.438;2023-10-08T15:03:03;1.30;;;1.20;;
18505;SDS011;9382;53.242;10.438;2023-10-08T15:05:31;1.23;;;1.13;;
18505;SDS011;9382;53.242;10.438;2023-10-08T15:07:58;1.30;;;1.20;;
18505;SDS011;9382;53.242;10.438;2023-10-08T15:10:25;1.47;;;1.30;;
18505;SDS011;9382;53.242;10.438;2023-10-08T15:12:54;2.47;;;1.30;;
18505;SDS011;9382;53.242;10.438;2023-10-08T15:15:38;1.57;;;1.30;;
18505;SDS011;9382;53.242;10.438;2023-10-08T15:18:31;2.13;;;1.37;;
18505;SDS011;9382;53.242;10.438;2023-10-08T15:21:07;1.70;;;1.30;;
18505;SDS011;9382;53.242;10.438;2023-10-08T15:23:35;1.50;;;1.40;;
18505;SDS011;9382;53.242;10.438;2023-10-08T15:26:05;3.23;;;1.80;;
18505;SDS011;9382;53.242;10.438;2023-10-08T15:28:33;1.87;;;1.50;;
18505;SDS011;9382;53.242;10.438;2023-10-08T15:31:00;2.10;;;1.50;;
18505;SDS011;9382;53.242;10.438;2023-10-08T15:33:27;1.77;;;1.40;;
18505;SDS011;9382;53.242;10.438;2023-10-08T15:35:58;2.30;;;1.43;;
18505;SDS011;9382;53.242;10.438;2023-10-08T15:38:32;1.60;;;1.50;;
18505;SDS011;9382;53.242;10.438;2023-10-08T15:41:05;1.93;;;1.47;;
18505;SDS011;9382;53.242;10.438;2023-10-08T15:43:39;1.73;;;1.30;;
18505;SDS011;9382;53.242;10.438;2023-10-08T15:46:09;1.60;;;1.50;;
18505;SDS011;9382;53.242;10.438;2023-10-08T15:48:39;1.60;;;1.40;;
18505;SDS011;9382;53.242;10.438;2023-10-08T15:51:09;1.60;;;1.50;;
18505;SDS011;9382;53.242;10.438;2023-10-08T15:53:39;3.37;;;1.43;;
18505;SDS011;9382;53.242;10.438;2023-10-08T15:56:08;1.50;;;1.40;;
18505;SDS011;9382;53.242;10.438;2023-10-08T15:58:36;2.33;;;1.63;;
18505;SDS011;9382;53.242;10.438;2023-10-08T16:01:15;2.50;;;1.47;;
18505;SDS011;9382;53.242;10.438;2023-10-08T16:03:42;1.50;;;1.40;;
18505;SDS011;9382;53.242;10.438;2023-10-08T16:06:12;2.13;;;1.70;;
18505;SDS011;9382;53.242;10.438;2023-10-08T16:08:39;1.67;;;1.50;;
18505;SDS011;9382;53.242;10.438;2023-10-08T16:11:08;2.93;;;1.70;;
18505;SDS011;9382;53.242;10.438;2023-10-08T16:13:38;2.23;;;1.50;;
18505;SDS011;9382;53.242;10.438;2023-10-08T16:16:07;2.03;;;1.47;;
18505;SDS011;9382;53.242;10.438;2023-10-08T16:18:37;1.60;;;1.47;;
18505;SDS011;9382;53.242;10.438;2023-10-08T16:21:06;1.73;;;1.60;;
18505;SDS011;9382;53.242;10.438;2023-10-08T16:23:40;3.33;;;2.30;;
18505;SDS011;9382;53.242;10.438;2023-10-08T16:26:07;4.17;;;3.43;;
18505;SDS011;9382;53.242;10.438;2023-10-08T16:28:38;6.13;;;4.17;;
18505;SDS011;9382;53.242;10.438;2023-10-08T16:31:11;5.47;;;4.00;;
18505;SDS011;9382;53.242;10.438;2023-10-08T16:34:06;3.87;;;3.47;;
18505;SDS011;9382;53.242;10.438;2023-10-08T16:36:54;7.30;;;3.30;;
18505;SDS011;9382;53.242;10.438;2023-10-08T16:39:48;2.83;;;2.53;;
18505;SDS011;9382;53.242;10.438;2023-10-08T16:42:24;2.80;;;2.13;;
18505;SDS011;9382;53.242;10.438;2023-10-08T16:45:05;3.93;;;2.43;;
18505;SDS011;9382;53.242;10.438;2023-10-08T16:47:47;3.87;;;2.57;;
18505;SDS011;9382;53.242;10.438;2023-10-08T16:50:17;2.60;;;2.30;;
18505;SDS011;9382;53.242;10.438;2023-10-08T16:52:47;3.33;;;2.50;;
18505;SDS011;9382;53.242;10.438;2023-10-08T16:55:16;4.20;;;2.40;;
18505;SDS011;9382;53.242;10.438;2023-10-08T16:57:44;2.20;;;2.07;;
18505;SDS011;9382;53.242;10.438;2023-10-08T17:00:12;3.90;;;3.50;;
18505;SDS011;9382;53.242;10.438;2023-10-08T17:02:46;5.70;;;3.40;;
18505;SDS011;9382;53.242;10.438;2023-10-08T17:05:26;2.83;;;2.63;;
18505;SDS011;9382;53.242;10.438;2023-10-08T17:07:55;3.80;;;2.70;;
18505;SDS011;9382;53.242;10.438;2023-10-08T17:10:27;3.47;;;2.47;;
18505;SDS011;9382;53.242;10.438;2023-10-08T17:12:55;4.97;;;2.70;;
18505;SDS011;9382;53.242;10.438;2023-10-08T17:15:23;3.00;;;2.37;;
18505;SDS011;9382;53.242;10.438;2023-10-08T17:17:51;3.10;;;2.57;;
18505;SDS011;9382;53.242;10.438;2023-10-08T17:20:18;2.70;;;2.50;;
18505;SDS011;9382;53.242;10.438;2023-10-08T17:22:48;4.67;;;2.77;;
18505;SDS011;9382;53.242;10.438;2023-10-08T17:25:15;4.90;;;3.40;;
18505;SDS011;9382;53.242;10.438;2023-10-08T17:27:45;7.17;;;4.83;;
18505;SDS011;9382;53.242;10.438;2023-10-08T17:30:15;6.73;;;4.93;;
18505;SDS011;9382;53.242;10.438;2023-10-08T17:32:49;5.33;;;4.10;;
18505;SDS011;9382;53.242;10.438;2023-10-08T17:35:17;7.53;;;4.27;;
18505;SDS011;9382;53.242;10.438;2023-10-08T17:37:46;6.93;;;4.70;;
18505;SDS011;9382;53.242;10.438;2023-10-08T17:40:17;5.47;;;4.17;;
18505;SDS011;9382;53.242;10.438;2023-10-08T17:42:50;6.13;;;4.10;;
18505;SDS011;9382;53.242;10.438;2023-10-08T17:45:19;5.63;;;4.47;;
18505;SDS011;9382;53.242;10.438;2023-10-08T17:47:57;6.00;;;4.27;;
18505;SDS011;9382;53.242;10.438;2023-10-08T17:50:33;4.97;;;4.10;;
18505;SDS011;9382;53.242;10.438;2023-10-08T17:53:05;8.20;;;4.27;;
18505;SDS011;9382;53.242;10.438;2023-10-08T17:55:35;6.50;;;3.70;;
18505;SDS011;9382;53.242;10.438;2023-10-08T17:58:09;6.73;;;3.90;;
18505;SDS011;9382;53.242;10.438;2023-10-08T18:00:42;6.30;;;3.50;;
18505;SDS011;9382;53.242;10.438;2023-10-08T18:03:10;5.90;;;3.43;;
18505;SDS011;9382;53.242;10.438;2023-10-08T18:05:38;4.00;;;3.20;;
18505;SDS011;9382;53.242;10.438;2023-10-08T18:08:05;5.23;;;3.20;;
18505;SDS011;9382;53.242;10.438;2023-10-08T18:10:36;7.63;;;4.20;;
18505;SDS011;9382;53.242;10.438;2023-10-08T18:13:08;18.50;;;8.97;;
18505;SDS011;9382;53.242;10.438;2023-10-08T18:15:36;22.17;;;11.53;;
18505;SDS011;9382;53.242;10.438;2023-10-08T18:18:05;23.70;;;12.37;;
18505;SDS011;9382;53.242;10.438;2023-10-08T18:20:35;18.70;;;10.30;;
18505;SDS011;9382;53.242;10.438;2023-10-08T18:23:08;12.37;;;7.17;;
18505;SDS011;9382;53.242;10.438;2023-10-08T18:25:36;12.00;;;7.13;;
18505;SDS011;9382;53.242;10.438;2023-10-08T18:28:05;10.03;;;5.20;;
18505;SDS011;9382;53.242;10.438;2023-10-08T18:30:36;5.77;;;3.83;;
18505;SDS011;9382;53.242;10.438;2023-10-08T18:33:04;4.90;;;3.37;;
18505;SDS011;9382;53.242;10.438;2023-10-08T18:35:32;5.67;;;3.43;;
18505;SDS011;9382;53.242;10.438;2023-10-08T18:37:59;5.57;;;3.00;;
18505;SDS011;9382;53.242;10.438;2023-10-08T18:40:27;3.87;;;3.00;;
18505;SDS011;9382;53.242;10.438;2023-10-08T18:42:57;4.80;;;3.33;;
18505;SDS011;9382;53.242;10.438;2023-10-08T18:45:25;4.57;;;3.03;;
18505;SDS011;9382;53.242;10.438;2023-10-08T18:48:03;4.93;;;3.00;;
18505;SDS011;9382;53.242;10.438;2023-10-08T18:50:34;3.63;;;2.90;;
18505;SDS011;9382;53.242;10.438;2023-10-08T18:53:10;2.87;;;2.10;;
18505;SDS011;9382;53.242;10.438;2023-10-08T18:55:39;3.60;;;2.13;;
18505;SDS011;9382;53.242;10.438;2023-10-08T18:58:09;2.17;;;1.97;;
18505;SDS011;9382;53.242;10.438;2023-10-08T19:00:47;2.07;;;1.87;;
18505;SDS011;9382;53.242;10.438;2023-10-08T19:03:19;3.87;;;1.90;;
18505;SDS011;9382;53.242;10.438;2023-10-08T19:05:48;2.53;;;2.10;;
18505;SDS011;9382;53.242;10.438;2023-10-08T19:08:23;2.20;;;2.00;;
18505;SDS011;9382;53.242;10.438;2023-10-08T19:10:51;3.27;;;2.00;;
18505;SDS011;9382;53.242;10.438;2023-10-08T19:13:22;3.30;;;1.83;;
18505;SDS011;9382;53.242;10.438;2023-10-08T19:15:53;2.13;;;1.90;;
18505;SDS011;9382;53.242;10.438;2023-10-08T19:18:23;2.00;;;1.80;;